Terminal Aerodrome Forecast
Issued by NWS

Home | Current Version | Previous Version | Graphics & Text | Print | Product List | Glossary On
Versions: 1 2 3 4 5 6 7 8 9 10 11 12 13 14 15 16 17 18
000
FTUS43 KABR 190538
TAFPIR
TAF
KPIR 190538Z 1906/2006 11011KT P6SM SCT200
     FM191600 14014G23KT P6SM SCT150
     FM192200 22014KT P6SM SCT250
     FM200200 10008KT P6SM BKN200=

USA.gov is the U.S. government's official web portal to all federal, state and local government web resources and services.